sensor_id;sensor_type;location;lat;lon;timestamp;P1;durP1;ratioP1;P2;durP2;ratioP2
23590;SDS011;11973;52.098;7.582;2023-04-07T03:47:48;18.95;;;17.05;;
23590;SDS011;11973;52.098;7.582;2023-04-07T03:50:16;19.23;;;17.33;;
23590;SDS011;11973;52.098;7.582;2023-04-07T03:53:04;19.55;;;17.42;;
23590;SDS011;11973;52.098;7.582;2023-04-07T03:55:31;19.65;;;17.75;;
23590;SDS011;11973;52.098;7.582;2023-04-07T03:58:06;20.38;;;18.27;;
23590;SDS011;11973;52.098;7.582;2023-04-07T04:00:34;20.10;;;18.05;;
23590;SDS011;11973;52.098;7.582;2023-04-07T04:03:07;21.42;;;19.13;;
23590;SDS011;11973;52.098;7.582;2023-04-07T04:05:36;21.60;;;19.35;;
23590;SDS011;11973;52.098;7.582;2023-04-07T04:08:02;20.52;;;18.50;;
23590;SDS011;11973;52.098;7.582;2023-04-07T04:10:28;21.85;;;19.25;;
23590;SDS011;11973;52.098;7.582;2023-04-07T04:12:56;20.67;;;18.63;;
23590;SDS011;11973;52.098;7.582;2023-04-07T04:15:25;20.48;;;18.30;;
23590;SDS011;11973;52.098;7.582;2023-04-07T04:17:51;21.25;;;18.95;;
23590;SDS011;11973;52.098;7.582;2023-04-07T04:20:17;21.02;;;18.67;;
23590;SDS011;11973;52.098;7.582;2023-04-07T04:22:48;19.58;;;17.70;;
23590;SDS011;11973;52.098;7.582;2023-04-07T04:25:15;20.63;;;18.42;;
23590;SDS011;11973;52.098;7.582;2023-04-07T04:27:46;19.38;;;17.38;;
23590;SDS011;11973;52.098;7.582;2023-04-07T04:30:18;20.65;;;17.95;;
23590;SDS011;11973;52.098;7.582;2023-04-07T04:32:50;20.27;;;18.13;;
23590;SDS011;11973;52.098;7.582;2023-04-07T04:35:21;19.83;;;17.45;;
23590;SDS011;11973;52.098;7.582;2023-04-07T04:38:00;19.92;;;17.85;;
23590;SDS011;11973;52.098;7.582;2023-04-07T04:40:26;19.80;;;17.75;;
23590;SDS011;11973;52.098;7.582;2023-04-07T04:42:52;19.70;;;17.17;;
23590;SDS011;11973;52.098;7.582;2023-04-07T04:45:20;19.08;;;17.25;;
23590;SDS011;11973;52.098;7.582;2023-04-07T04:47:47;19.27;;;17.25;;
23590;SDS011;11973;52.098;7.582;2023-04-07T04:50:12;18.58;;;16.67;;
23590;SDS011;11973;52.098;7.582;2023-04-07T04:52:40;19.35;;;17.35;;
23590;SDS011;11973;52.098;7.582;2023-04-07T04:55:11;19.65;;;17.60;;
23590;SDS011;11973;52.098;7.582;2023-04-07T04:57:37;19.00;;;17.10;;
23590;SDS011;11973;52.098;7.582;2023-04-07T05:00:10;19.40;;;17.50;;
23590;SDS011;11973;52.098;7.582;2023-04-07T05:02:38;21.55;;;17.08;;
23590;SDS011;11973;52.098;7.582;2023-04-07T05:05:06;18.80;;;16.83;;
23590;SDS011;11973;52.098;7.582;2023-04-07T05:07:32;18.70;;;16.80;;
23590;SDS011;11973;52.098;7.582;2023-04-07T05:09:58;19.92;;;17.30;;
23590;SDS011;11973;52.098;7.582;2023-04-07T05:12:24;18.05;;;16.27;;
23590;SDS011;11973;52.098;7.582;2023-04-07T05:14:56;17.83;;;16.05;;
23590;SDS011;11973;52.098;7.582;2023-04-07T05:17:21;19.45;;;17.42;;
23590;SDS011;11973;52.098;7.582;2023-04-07T05:19:48;18.20;;;16.50;;
23590;SDS011;11973;52.098;7.582;2023-04-07T05:22:23;18.75;;;16.95;;
23590;SDS011;11973;52.098;7.582;2023-04-07T05:24:50;18.92;;;16.95;;
23590;SDS011;11973;52.098;7.582;2023-04-07T05:27:16;17.80;;;16.02;;
23590;SDS011;11973;52.098;7.582;2023-04-07T05:29:46;19.02;;;17.02;;
23590;SDS011;11973;52.098;7.582;2023-04-07T05:32:20;18.13;;;16.50;;
23590;SDS011;11973;52.098;7.582;2023-04-07T05:34:46;18.38;;;16.30;;
23590;SDS011;11973;52.098;7.582;2023-04-07T05:37:13;18.35;;;16.55;;
23590;SDS011;11973;52.098;7.582;2023-04-07T05:39:38;18.45;;;16.55;;
23590;SDS011;11973;52.098;7.582;2023-04-07T05:42:07;17.92;;;16.15;;
23590;SDS011;11973;52.098;7.582;2023-04-07T05:44:35;19.90;;;16.05;;
23590;SDS011;11973;52.098;7.582;2023-04-07T05:47:00;17.40;;;15.70;;
23590;SDS011;11973;52.098;7.582;2023-04-07T05:49:31;17.27;;;15.63;;
23590;SDS011;11973;52.098;7.582;2023-04-07T05:52:03;17.50;;;15.70;;
23590;SDS011;11973;52.098;7.582;2023-04-07T05:54:31;16.83;;;15.23;;
23590;SDS011;11973;52.098;7.582;2023-04-07T05:57:00;17.63;;;15.93;;
23590;SDS011;11973;52.098;7.582;2023-04-07T05:59:28;17.85;;;15.95;;
23590;SDS011;11973;52.098;7.582;2023-04-07T06:01:54;16.63;;;15.07;;
23590;SDS011;11973;52.098;7.582;2023-04-07T06:04:20;16.58;;;15.00;;
23590;SDS011;11973;52.098;7.582;2023-04-07T06:06:48;17.08;;;15.27;;
23590;SDS011;11973;52.098;7.582;2023-04-07T06:09:17;16.08;;;14.70;;
23590;SDS011;11973;52.098;7.582;2023-04-07T06:11:42;16.50;;;14.80;;
23590;SDS011;11973;52.098;7.582;2023-04-07T06:14:08;15.65;;;14.32;;
23590;SDS011;11973;52.098;7.582;2023-04-07T06:16:34;16.90;;;15.25;;
23590;SDS011;11973;52.098;7.582;2023-04-07T06:19:00;16.10;;;14.63;;
23590;SDS011;11973;52.098;7.582;2023-04-07T06:21:27;15.85;;;14.38;;
23590;SDS011;11973;52.098;7.582;2023-04-07T06:23:54;15.88;;;14.57;;
23590;SDS011;11973;52.098;7.582;2023-04-07T06:26:20;15.25;;;13.85;;
23590;SDS011;11973;52.098;7.582;2023-04-07T06:28:46;16.27;;;14.70;;
23590;SDS011;11973;52.098;7.582;2023-04-07T06:31:13;15.63;;;14.02;;
23590;SDS011;11973;52.098;7.582;2023-04-07T06:33:38;15.07;;;13.68;;
23590;SDS011;11973;52.098;7.582;2023-04-07T06:36:04;15.48;;;14.05;;
23590;SDS011;11973;52.098;7.582;2023-04-07T06:38:30;14.65;;;13.38;;
23590;SDS011;11973;52.098;7.582;2023-04-07T06:40:56;15.73;;;14.27;;
23590;SDS011;11973;52.098;7.582;2023-04-07T06:43:22;15.57;;;14.23;;
23590;SDS011;11973;52.098;7.582;2023-04-07T06:45:59;15.02;;;13.73;;
23590;SDS011;11973;52.098;7.582;2023-04-07T06:48:25;14.85;;;13.60;;
23590;SDS011;11973;52.098;7.582;2023-04-07T06:50:51;15.05;;;13.68;;
23590;SDS011;11973;52.098;7.582;2023-04-07T06:53:16;15.40;;;14.05;;
23590;SDS011;11973;52.098;7.582;2023-04-07T06:55:42;15.18;;;13.85;;
23590;SDS011;11973;52.098;7.582;2023-04-07T06:58:08;15.00;;;13.80;;
23590;SDS011;11973;52.098;7.582;2023-04-07T07:00:34;13.30;;;12.20;;
23590;SDS011;11973;52.098;7.582;2023-04-07T07:03:01;14.32;;;13.20;;
23590;SDS011;11973;52.098;7.582;2023-04-07T07:05:26;13.98;;;12.90;;
23590;SDS011;11973;52.098;7.582;2023-04-07T07:07:52;14.02;;;12.77;;
23590;SDS011;11973;52.098;7.582;2023-04-07T07:10:18;13.77;;;12.68;;
23590;SDS011;11973;52.098;7.582;2023-04-07T07:12:46;14.52;;;13.23;;
23590;SDS011;11973;52.098;7.582;2023-04-07T07:15:13;14.13;;;13.02;;
23590;SDS011;11973;52.098;7.582;2023-04-07T07:17:39;13.48;;;12.38;;
23590;SDS011;11973;52.098;7.582;2023-04-07T07:20:05;12.60;;;11.70;;
23590;SDS011;11973;52.098;7.582;2023-04-07T07:22:31;13.40;;;12.30;;
23590;SDS011;11973;52.098;7.582;2023-04-07T07:24:57;13.50;;;12.40;;
23590;SDS011;11973;52.098;7.582;2023-04-07T07:27:23;12.27;;;11.38;;
23590;SDS011;11973;52.098;7.582;2023-04-07T07:29:49;12.27;;;11.32;;
23590;SDS011;11973;52.098;7.582;2023-04-07T07:32:15;12.63;;;11.68;;
23590;SDS011;11973;52.098;7.582;2023-04-07T07:34:41;10.32;;;9.70;;
23590;SDS011;11973;52.098;7.582;2023-04-07T07:37:06;10.73;;;10.10;;
23590;SDS011;11973;52.098;7.582;2023-04-07T07:39:32;10.80;;;10.13;;
23590;SDS011;11973;52.098;7.582;2023-04-07T07:41:58;11.38;;;10.57;;
23590;SDS011;11973;52.098;7.582;2023-04-07T07:44:23;9.82;;;9.32;;
23590;SDS011;11973;52.098;7.582;2023-04-07T07:46:49;10.70;;;10.00;;
23590;SDS011;11973;52.098;7.582;2023-04-07T07:49:15;10.20;;;9.70;;
23590;SDS011;11973;52.098;7.582;2023-04-07T07:51:41;11.02;;;10.32;;
23590;SDS011;11973;52.098;7.582;2023-04-07T07:54:07;10.32;;;9.75;;
23590;SDS011;11973;52.098;7.582;2023-04-07T07:56:34;10.95;;;10.25;;
23590;SDS011;11973;52.098;7.582;2023-04-07T07:58:59;10.65;;;9.93;;
23590;SDS011;11973;52.098;7.582;2023-04-07T08:01:25;9.90;;;9.40;;
23590;SDS011;11973;52.098;7.582;2023-04-07T08:03:51;10.57;;;9.98;;
23590;SDS011;11973;52.098;7.582;2023-04-07T08:06:17;11.82;;;10.95;;
23590;SDS011;11973;52.098;7.582;2023-04-07T08:08:43;12.15;;;11.25;;
23590;SDS011;11973;52.098;7.582;2023-04-07T08:11:08;10.65;;;10.02;;
23590;SDS011;11973;52.098;7.582;2023-04-07T08:13:34;9.85;;;9.25;;
23590;SDS011;11973;52.098;7.582;2023-04-07T08:16:00;9.73;;;9.23;;
23590;SDS011;11973;52.098;7.582;2023-04-07T08:18:26;12.07;;;11.27;;
23590;SDS011;11973;52.098;7.582;2023-04-07T08:20:52;13.07;;;12.13;;
23590;SDS011;11973;52.098;7.582;2023-04-07T08:23:17;10.70;;;10.10;;
23590;SDS011;11973;52.098;7.582;2023-04-07T08:25:43;9.35;;;8.85;;
23590;SDS011;11973;52.098;7.582;2023-04-07T08:28:09;10.35;;;9.75;;
23590;SDS011;11973;52.098;7.582;2023-04-07T08:30:35;10.15;;;9.55;;
23590;SDS011;11973;52.098;7.582;2023-04-07T08:33:02;9.48;;;8.98;;
23590;SDS011;11973;52.098;7.582;2023-04-07T08:35:29;9.82;;;9.32;;
23590;SDS011;11973;52.098;7.582;2023-04-07T08:37:55;9.05;;;8.73;;
23590;SDS011;11973;52.098;7.582;2023-04-07T08:40:21;9.15;;;8.68;;
23590;SDS011;11973;52.098;7.582;2023-04-07T08:42:47;10.18;;;9.57;;
23590;SDS011;11973;52.098;7.582;2023-04-07T08:45:14;9.75;;;9.25;;
23590;SDS011;11973;52.098;7.582;2023-04-07T08:47:42;10.25;;;9.65;;
23590;SDS011;11973;52.098;7.582;2023-04-07T08:50:09;9.82;;;9.23;;
23590;SDS011;11973;52.098;7.582;2023-04-07T08:52:45;9.25;;;8.68;;
23590;SDS011;11973;52.098;7.582;2023-04-07T08:55:20;9.13;;;8.73;;
23590;SDS011;11973;52.098;7.582;2023-04-07T08:57:46;9.95;;;9.30;;
23590;SDS011;11973;52.098;7.582;2023-04-07T09:00:13;9.55;;;9.00;;
23590;SDS011;11973;52.098;7.582;2023-04-07T09:02:40;9.50;;;9.02;;
23590;SDS011;11973;52.098;7.582;2023-04-07T09:05:12;10.05;;;9.45;;
23590;SDS011;11973;52.098;7.582;2023-04-07T09:07:41;9.32;;;8.85;;
23590;SDS011;11973;52.098;7.582;2023-04-07T09:10:10;8.80;;;8.30;;
23590;SDS011;11973;52.098;7.582;2023-04-07T09:12:36;8.65;;;8.25;;
23590;SDS011;11973;52.098;7.582;2023-04-07T09:15:03;9.52;;;9.13;;
23590;SDS011;11973;52.098;7.582;2023-04-07T09:17:31;8.75;;;8.27;;
23590;SDS011;11973;52.098;7.582;2023-04-07T09:19:57;7.75;;;7.35;;
23590;SDS011;11973;52.098;7.582;2023-04-07T09:22:38;7.53;;;7.30;;
23590;SDS011;11973;52.098;7.582;2023-04-07T09:27:52;8.60;;;8.10;;
23590;SDS011;11973;52.098;7.582;2023-04-07T09:30:29;8.82;;;8.43;;
23590;SDS011;11973;52.098;7.582;2023-04-07T09:32:56;8.65;;;8.35;;
23590;SDS011;11973;52.098;7.582;2023-04-07T09:35:22;9.18;;;8.57;;
23590;SDS011;11973;52.098;7.582;2023-04-07T09:38:01;8.80;;;8.30;;
23590;SDS011;11973;52.098;7.582;2023-04-07T09:40:27;38.92;;;33.97;;
23590;SDS011;11973;52.098;7.582;2023-04-07T09:42:53;104.57;;;61.92;;
23590;SDS011;11973;52.098;7.582;2023-04-07T09:45:23;61.75;;;41.40;;
23590;SDS011;11973;52.098;7.582;2023-04-07T09:47:50;11.70;;;10.80;;
23590;SDS011;11973;52.098;7.582;2023-04-07T09:50:17;9.98;;;9.48;;
23590;SDS011;11973;52.098;7.582;2023-04-07T09:53:02;11.15;;;10.25;;
23590;SDS011;11973;52.098;7.582;2023-04-07T09:55:29;8.20;;;7.80;;
23590;SDS011;11973;52.098;7.582;2023-04-07T09:57:55;8.57;;;8.05;;
23590;SDS011;11973;52.098;7.582;2023-04-07T10:00:22;8.95;;;8.55;;
23590;SDS011;11973;52.098;7.582;2023-04-07T10:02:48;8.50;;;8.10;;
23590;SDS011;11973;52.098;7.582;2023-04-07T10:05:15;10.45;;;9.95;;
23590;SDS011;11973;52.098;7.582;2023-04-07T10:07:42;7.75;;;7.45;;
23590;SDS011;11973;52.098;7.582;2023-04-07T10:10:08;10.93;;;10.32;;
23590;SDS011;11973;52.098;7.582;2023-04-07T10:12:39;8.77;;;8.38;;
23590;SDS011;11973;52.098;7.582;2023-04-07T10:15:06;9.68;;;9.20;;
23590;SDS011;11973;52.098;7.582;2023-04-07T10:17:33;12.60;;;11.77;;
23590;SDS011;11973;52.098;7.582;2023-04-07T10:20:00;8.70;;;8.30;;
23590;SDS011;11973;52.098;7.582;2023-04-07T10:22:28;14.15;;;13.02;;
23590;SDS011;11973;52.098;7.582;2023-04-07T10:27:33;39.75;;;30.02;;
23590;SDS011;11973;52.098;7.582;2023-04-07T10:30:02;8.52;;;8.13;;
23590;SDS011;11973;52.098;7.582;2023-04-07T10:32:31;9.32;;;8.73;;
23590;SDS011;11973;52.098;7.582;2023-04-07T10:34:57;9.75;;;9.25;;
23590;SDS011;11973;52.098;7.582;2023-04-07T10:37:24;9.10;;;8.63;;
23590;SDS011;11973;52.098;7.582;2023-04-07T10:39:50;9.13;;;8.55;;
23590;SDS011;11973;52.098;7.582;2023-04-07T10:45:06;18.05;;;16.35;;
23590;SDS011;11973;52.098;7.582;2023-04-07T10:47:33;8.85;;;8.40;;
23590;SDS011;11973;52.098;7.582;2023-04-07T10:50:21;7.68;;;7.47;;
23590;SDS011;11973;52.098;7.582;2023-04-07T10:55:45;7.78;;;7.47;;
23590;SDS011;11973;52.098;7.582;2023-04-07T10:58:22;7.78;;;7.43;;
23590;SDS011;11973;52.098;7.582;2023-04-07T11:03:27;7.05;;;6.93;;
23590;SDS011;11973;52.098;7.582;2023-04-07T11:06:04;6.38;;;6.28;;
23590;SDS011;11973;52.098;7.582;2023-04-07T11:08:33;5.57;;;5.45;;
23590;SDS011;11973;52.098;7.582;2023-04-07T11:11:00;5.65;;;5.55;;
23590;SDS011;11973;52.098;7.582;2023-04-07T11:13:26;7.82;;;7.53;;
23590;SDS011;11973;52.098;7.582;2023-04-07T11:15:52;5.30;;;5.20;;
23590;SDS011;11973;52.098;7.582;2023-04-07T11:18:21;5.53;;;5.45;;
23590;SDS011;11973;52.098;7.582;2023-04-07T11:23:19;5.07;;;4.88;;
23590;SDS011;11973;52.098;7.582;2023-04-07T11:25:48;4.50;;;4.40;;
23590;SDS011;11973;52.098;7.582;2023-04-07T11:28:15;13.73;;;12.60;;
23590;SDS011;11973;52.098;7.582;2023-04-07T11:30:49;9.57;;;9.07;;
23590;SDS011;11973;52.098;7.582;2023-04-07T11:33:20;6.35;;;6.25;;
23590;SDS011;11973;52.098;7.582;2023-04-07T11:35:49;10.93;;;10.15;;
23590;SDS011;11973;52.098;7.582;2023-04-07T11:38:16;9.85;;;9.30;;
23590;SDS011;11973;52.098;7.582;2023-04-07T11:40:43;18.67;;;16.73;;
23590;SDS011;11973;52.098;7.582;2023-04-07T11:43:20;6.63;;;6.43;;
23590;SDS011;11973;52.098;7.582;2023-04-07T11:46:06;26.10;;;23.30;;
23590;SDS011;11973;52.098;7.582;2023-04-07T11:48:35;38.13;;;33.10;;
23590;SDS011;11973;52.098;7.582;2023-04-07T11:51:02;4.88;;;4.88;;
23590;SDS011;11973;52.098;7.582;2023-04-07T11:53:30;13.43;;;12.20;;
23590;SDS011;11973;52.098;7.582;2023-04-07T11:58:37;4.65;;;4.55;;
23590;SDS011;11973;52.098;7.582;2023-04-07T12:01:04;6.05;;;5.85;;
23590;SDS011;11973;52.098;7.582;2023-04-07T12:03:33;10.25;;;9.77;;
23590;SDS011;11973;52.098;7.582;2023-04-07T12:06:02;6.50;;;6.40;;
23590;SDS011;11973;52.098;7.582;2023-04-07T12:08:43;5.70;;;5.57;;
23590;SDS011;11973;52.098;7.582;2023-04-07T12:11:09;5.47;;;5.38;;
23590;SDS011;11973;52.098;7.582;2023-04-07T12:13:35;4.25;;;4.25;;
23590;SDS011;11973;52.098;7.582;2023-04-07T12:16:05;4.28;;;4.18;;
23590;SDS011;11973;52.098;7.582;2023-04-07T12:18:31;4.38;;;4.32;;
23590;SDS011;11973;52.098;7.582;2023-04-07T12:20:57;4.03;;;4.03;;
23590;SDS011;11973;52.098;7.582;2023-04-07T12:23:23;4.25;;;4.25;;
23590;SDS011;11973;52.098;7.582;2023-04-07T12:25:49;4.50;;;4.40;;
23590;SDS011;11973;52.098;7.582;2023-04-07T12:28:16;4.80;;;4.80;;
23590;SDS011;11973;52.098;7.582;2023-04-07T12:30:42;4.60;;;4.60;;
23590;SDS011;11973;52.098;7.582;2023-04-07T12:33:08;6.15;;;6.05;;
23590;SDS011;11973;52.098;7.582;2023-04-07T12:35:34;9.35;;;8.93;;
23590;SDS011;11973;52.098;7.582;2023-04-07T12:37:59;10.82;;;10.10;;
23590;SDS011;11973;52.098;7.582;2023-04-07T12:40:25;6.07;;;5.95;;
23590;SDS011;11973;52.098;7.582;2023-04-07T12:42:51;5.40;;;5.30;;
23590;SDS011;11973;52.098;7.582;2023-04-07T12:45:17;7.15;;;6.95;;
23590;SDS011;11973;52.098;7.582;2023-04-07T12:47:43;5.03;;;5.03;;
23590;SDS011;11973;52.098;7.582;2023-04-07T12:50:10;4.07;;;4.07;;
23590;SDS011;11973;52.098;7.582;2023-04-07T12:52:35;6.30;;;6.20;;
23590;SDS011;11973;52.098;7.582;2023-04-07T12:55:01;4.10;;;4.10;;
23590;SDS011;11973;52.098;7.582;2023-04-07T12:57:30;4.00;;;4.00;;
23590;SDS011;11973;52.098;7.582;2023-04-07T12:59:56;4.43;;;4.43;;
23590;SDS011;11973;52.098;7.582;2023-04-07T13:02:23;4.40;;;4.40;;
23590;SDS011;11973;52.098;7.582;2023-04-07T13:04:48;3.28;;;3.28;;
23590;SDS011;11973;52.098;7.582;2023-04-07T13:07:14;7.13;;;6.90;;
23590;SDS011;11973;52.098;7.582;2023-04-07T13:09:41;13.07;;;11.77;;
23590;SDS011;11973;52.098;7.582;2023-04-07T13:12:10;4.30;;;4.30;;
23590;SDS011;11973;52.098;7.582;2023-04-07T13:14:40;3.33;;;3.33;;
23590;SDS011;11973;52.098;7.582;2023-04-07T13:17:06;3.10;;;3.00;;
23590;SDS011;11973;52.098;7.582;2023-04-07T13:19:32;4.05;;;4.05;;
23590;SDS011;11973;52.098;7.582;2023-04-07T13:22:00;4.75;;;4.55;;
23590;SDS011;11973;52.098;7.582;2023-04-07T13:24:27;3.95;;;3.95;;
23590;SDS011;11973;52.098;7.582;2023-04-07T13:26:52;3.15;;;3.15;;
23590;SDS011;11973;52.098;7.582;2023-04-07T13:29:18;2.05;;;2.05;;
23590;SDS011;11973;52.098;7.582;2023-04-07T13:31:44;9.90;;;9.18;;
23590;SDS011;11973;52.098;7.582;2023-04-07T13:34:10;4.68;;;4.68;;
23590;SDS011;11973;52.098;7.582;2023-04-07T13:36:38;3.08;;;3.08;;
23590;SDS011;11973;52.098;7.582;2023-04-07T13:39:05;1.85;;;1.85;;
23590;SDS011;11973;52.098;7.582;2023-04-07T13:41:31;2.05;;;1.90;;
23590;SDS011;11973;52.098;7.582;2023-04-07T13:43:58;2.20;;;2.20;;
23590;SDS011;11973;52.098;7.582;2023-04-07T13:46:25;2.10;;;2.10;;
23590;SDS011;11973;52.098;7.582;2023-04-07T13:48:51;1.92;;;1.92;;
23590;SDS011;11973;52.098;7.582;2023-04-07T13:51:17;1.80;;;1.80;;
23590;SDS011;11973;52.098;7.582;2023-04-07T13:53:43;1.60;;;1.60;;
23590;SDS011;11973;52.098;7.582;2023-04-07T13:56:09;2.72;;;2.72;;
23590;SDS011;11973;52.098;7.582;2023-04-07T13:58:35;2.10;;;2.10;;
23590;SDS011;11973;52.098;7.582;2023-04-07T14:01:01;1.75;;;1.73;;
23590;SDS011;11973;52.098;7.582;2023-04-07T14:03:29;1.70;;;1.70;;
23590;SDS011;11973;52.098;7.582;2023-04-07T14:05:55;2.08;;;2.00;;
23590;SDS011;11973;52.098;7.582;2023-04-07T14:08:25;1.88;;;1.88;;
23590;SDS011;11973;52.098;7.582;2023-04-07T14:10:51;2.40;;;2.40;;
23590;SDS011;11973;52.098;7.582;2023-04-07T14:13:18;1.27;;;1.27;;
23590;SDS011;11973;52.098;7.582;2023-04-07T14:15:44;1.40;;;1.40;;
23590;SDS011;11973;52.098;7.582;2023-04-07T14:18:10;1.38;;;1.38;;
23590;SDS011;11973;52.098;7.582;2023-04-07T14:20:36;1.20;;;1.20;;
23590;SDS011;11973;52.098;7.582;2023-04-07T14:23:01;1.40;;;1.40;;
23590;SDS011;11973;52.098;7.582;2023-04-07T14:25:27;1.15;;;1.15;;
23590;SDS011;11973;52.098;7.582;2023-04-07T14:27:53;5.25;;;5.15;;
23590;SDS011;11973;52.098;7.582;2023-04-07T14:30:19;2.78;;;2.78;;
23590;SDS011;11973;52.098;7.582;2023-04-07T14:32:46;1.38;;;1.38;;
23590;SDS011;11973;52.098;7.582;2023-04-07T14:35:12;2.42;;;2.42;;
23590;SDS011;11973;52.098;7.582;2023-04-07T14:37:38;1.80;;;1.80;;
23590;SDS011;11973;52.098;7.582;2023-04-07T14:40:04;26.13;;;24.25;;
23590;SDS011;11973;52.098;7.582;2023-04-07T14:42:31;1.90;;;1.90;;
23590;SDS011;11973;52.098;7.582;2023-04-07T14:45:00;1.50;;;1.50;;
23590;SDS011;11973;52.098;7.582;2023-04-07T14:47:27;1.40;;;1.40;;
23590;SDS011;11973;52.098;7.582;2023-04-07T14:49:52;1.52;;;1.52;;
23590;SDS011;11973;52.098;7.582;2023-04-07T14:52:18;5.50;;;5.13;;
23590;SDS011;11973;52.098;7.582;2023-04-07T14:54:45;15.35;;;14.18;;
23590;SDS011;11973;52.098;7.582;2023-04-07T14:57:11;2.15;;;2.15;;
23590;SDS011;11973;52.098;7.582;2023-04-07T14:59:37;1.85;;;1.85;;
23590;SDS011;11973;52.098;7.582;2023-04-07T15:02:02;3.17;;;3.17;;
23590;SDS011;11973;52.098;7.582;2023-04-07T15:04:28;2.20;;;2.20;;
23590;SDS011;11973;52.098;7.582;2023-04-07T15:06:54;2.10;;;2.10;;
23590;SDS011;11973;52.098;7.582;2023-04-07T15:09:20;2.40;;;2.40;;
23590;SDS011;11973;52.098;7.582;2023-04-07T15:11:46;2.17;;;2.17;;
23590;SDS011;11973;52.098;7.582;2023-04-07T15:14:12;3.70;;;3.70;;
23590;SDS011;11973;52.098;7.582;2023-04-07T15:16:39;3.45;;;3.45;;
23590;SDS011;11973;52.098;7.582;2023-04-07T15:19:04;2.70;;;2.70;;
23590;SDS011;11973;52.098;7.582;2023-04-07T15:21:30;2.13;;;2.13;;
23590;SDS011;11973;52.098;7.582;2023-04-07T15:23:56;3.00;;;2.65;;
23590;SDS011;11973;52.098;7.582;2023-04-07T15:26:23;2.30;;;2.20;;
23590;SDS011;11973;52.098;7.582;2023-04-07T15:28:48;3.03;;;2.92;;
23590;SDS011;11973;52.098;7.582;2023-04-07T15:31:14;2.70;;;2.70;;
23590;SDS011;11973;52.098;7.582;2023-04-07T15:33:40;3.20;;;3.20;;
23590;SDS011;11973;52.098;7.582;2023-04-07T15:36:08;2.40;;;2.40;;
23590;SDS011;11973;52.098;7.582;2023-04-07T15:38:34;2.70;;;2.70;;
23590;SDS011;11973;52.098;7.582;2023-04-07T15:41:00;1.55;;;1.45;;
23590;SDS011;11973;52.098;7.582;2023-04-07T15:43:26;1.40;;;1.40;;
23590;SDS011;11973;52.098;7.582;2023-04-07T15:45:53;1.92;;;1.83;;
23590;SDS011;11973;52.098;7.582;2023-04-07T15:48:20;1.60;;;1.50;;
23590;SDS011;11973;52.098;7.582;2023-04-07T15:50:45;1.80;;;1.80;;
23590;SDS011;11973;52.098;7.582;2023-04-07T15:53:11;1.80;;;1.80;;
23590;SDS011;11973;52.098;7.582;2023-04-07T15:55:37;2.40;;;2.40;;
23590;SDS011;11973;52.098;7.582;2023-04-07T15:58:03;3.03;;;3.03;;
23590;SDS011;11973;52.098;7.582;2023-04-07T16:00:31;3.83;;;3.83;;
23590;SDS011;11973;52.098;7.582;2023-04-07T16:02:57;2.97;;;2.88;;
23590;SDS011;11973;52.098;7.582;2023-04-07T16:05:25;3.17;;;3.17;;
23590;SDS011;11973;52.098;7.582;2023-04-07T16:07:50;2.72;;;2.72;;
23590;SDS011;11973;52.098;7.582;2023-04-07T16:10:16;2.60;;;2.60;;
23590;SDS011;11973;52.098;7.582;2023-04-07T16:12:44;2.45;;;2.45;;
23590;SDS011;11973;52.098;7.582;2023-04-07T16:15:12;2.22;;;2.22;;
23590;SDS011;11973;52.098;7.582;2023-04-07T16:17:40;2.20;;;2.20;;
23590;SDS011;11973;52.098;7.582;2023-04-07T16:20:08;2.15;;;2.15;;
23590;SDS011;11973;52.098;7.582;2023-04-07T16:22:45;1.90;;;1.90;;
23590;SDS011;11973;52.098;7.582;2023-04-07T16:25:15;2.10;;;2.10;;
23590;SDS011;11973;52.098;7.582;2023-04-07T16:27:42;2.83;;;2.80;;
23590;SDS011;11973;52.098;7.582;2023-04-07T16:30:09;7.45;;;7.15;;
23590;SDS011;11973;52.098;7.582;2023-04-07T16:32:37;3.15;;;3.15;;
23590;SDS011;11973;52.098;7.582;2023-04-07T16:35:03;3.20;;;3.10;;
23590;SDS011;11973;52.098;7.582;2023-04-07T16:37:30;3.40;;;3.40;;
23590;SDS011;11973;52.098;7.582;2023-04-07T16:39:56;2.75;;;2.75;;
23590;SDS011;11973;52.098;7.582;2023-04-07T16:42:25;2.92;;;2.92;;
23590;SDS011;11973;52.098;7.582;2023-04-07T16:44:53;3.58;;;3.47;;
23590;SDS011;11973;52.098;7.582;2023-04-07T16:47:19;4.18;;;4.18;;
23590;SDS011;11973;52.098;7.582;2023-04-07T16:49:45;4.15;;;4.15;;
23590;SDS011;11973;52.098;7.582;2023-04-07T16:52:11;4.93;;;4.82;;
23590;SDS011;11973;52.098;7.582;2023-04-07T16:54:38;2.50;;;2.40;;
23590;SDS011;11973;52.098;7.582;2023-04-07T16:57:04;2.17;;;2.17;;
23590;SDS011;11973;52.098;7.582;2023-04-07T16:59:30;2.75;;;2.75;;
23590;SDS011;11973;52.098;7.582;2023-04-07T17:01:56;6.20;;;6.10;;
23590;SDS011;11973;52.098;7.582;2023-04-07T17:04:22;2.63;;;2.63;;
23590;SDS011;11973;52.098;7.582;2023-04-07T17:06:47;3.70;;;3.70;;
23590;SDS011;11973;52.098;7.582;2023-04-07T17:09:13;2.00;;;2.00;;
23590;SDS011;11973;52.098;7.582;2023-04-07T17:11:43;3.05;;;3.05;;
23590;SDS011;11973;52.098;7.582;2023-04-07T17:14:08;1.95;;;1.95;;
23590;SDS011;11973;52.098;7.582;2023-04-07T17:16:34;1.90;;;1.80;;
23590;SDS011;11973;52.098;7.582;2023-04-07T17:19:00;1.95;;;1.95;;
23590;SDS011;11973;52.098;7.582;2023-04-07T17:21:25;1.70;;;1.70;;
23590;SDS011;11973;52.098;7.582;2023-04-07T17:23:51;1.70;;;1.70;;
23590;SDS011;11973;52.098;7.582;2023-04-07T17:26:18;1.77;;;1.77;;
23590;SDS011;11973;52.098;7.582;2023-04-07T17:28:44;1.58;;;1.58;;
23590;SDS011;11973;52.098;7.582;2023-04-07T17:31:13;1.60;;;1.60;;
23590;SDS011;11973;52.098;7.582;2023-04-07T17:33:39;1.67;;;1.67;;
23590;SDS011;11973;52.098;7.582;2023-04-07T17:36:04;1.58;;;1.58;;
23590;SDS011;11973;52.098;7.582;2023-04-07T17:38:30;1.77;;;1.77;;
23590;SDS011;11973;52.098;7.582;2023-04-07T17:40:56;1.90;;;1.90;;
23590;SDS011;11973;52.098;7.582;2023-04-07T17:43:23;1.80;;;1.80;;
23590;SDS011;11973;52.098;7.582;2023-04-07T17:45:48;2.42;;;2.42;;
23590;SDS011;11973;52.098;7.582;2023-04-07T17:48:14;85.13;;;53.03;;
23590;SDS011;11973;52.098;7.582;2023-04-07T17:50:41;12.93;;;11.77;;
23590;SDS011;11973;52.098;7.582;2023-04-07T17:53:07;21.77;;;18.42;;
23590;SDS011;11973;52.098;7.582;2023-04-07T17:55:33;11.82;;;10.77;;
23590;SDS011;11973;52.098;7.582;2023-04-07T17:57:59;10.32;;;9.52;;
23590;SDS011;11973;52.098;7.582;2023-04-07T18:00:26;12.43;;;10.60;;
23590;SDS011;11973;52.098;7.582;2023-04-07T18:02:53;8.55;;;7.85;;
23590;SDS011;11973;52.098;7.582;2023-04-07T18:05:19;5.22;;;5.03;;
23590;SDS011;11973;52.098;7.582;2023-04-07T18:07:45;3.80;;;3.70;;
23590;SDS011;11973;52.098;7.582;2023-04-07T18:10:12;3.10;;;3.10;;
23590;SDS011;11973;52.098;7.582;2023-04-07T18:12:38;2.72;;;2.65;;
23590;SDS011;11973;52.098;7.582;2023-04-07T18:15:05;2.53;;;2.53;;
23590;SDS011;11973;52.098;7.582;2023-04-07T18:17:32;2.75;;;2.65;;
23590;SDS011;11973;52.098;7.582;2023-04-07T18:19:58;2.20;;;2.20;;
23590;SDS011;11973;52.098;7.582;2023-04-07T18:22:25;2.63;;;2.53;;
23590;SDS011;11973;52.098;7.582;2023-04-07T18:24:51;2.20;;;2.10;;
23590;SDS011;11973;52.098;7.582;2023-04-07T18:27:17;3.38;;;3.28;;
23590;SDS011;11973;52.098;7.582;2023-04-07T18:29:42;4.22;;;4.13;;
23590;SDS011;11973;52.098;7.582;2023-04-07T18:32:08;4.75;;;4.75;;
23590;SDS011;11973;52.098;7.582;2023-04-07T18:34:34;4.07;;;4.07;;
23590;SDS011;11973;52.098;7.582;2023-04-07T18:37:00;3.70;;;3.60;;
23590;SDS011;11973;52.098;7.582;2023-04-07T18:39:26;4.35;;;4.28;;
23590;SDS011;11973;52.098;7.582;2023-04-07T18:41:52;7.50;;;7.15;;
23590;SDS011;11973;52.098;7.582;2023-04-07T18:44:19;4.88;;;4.88;;